Time;durP1;ratioP1;P1;durP2;ratioP2;P2;SDS_P1;SDS_P2;PMS_P1;PMS_P2;Temp;Humidity;BMP_temperature;BMP_pressure;BME280_temperature;BME280_humidity;BME280_pressure;Samples;Min_cycle;Max_cycle;Signal;HPM_P1;HPM_P2
2021/05/22 00:01:25;;;;;;;2.03;1.50;;;12.70;99.90;;;;;;5114681;28;20762;-61
2021/05/22 00:03:54;;;;;;;1.50;1.40;;;12.70;99.90;;;;;;5114955;28;20290;-61
2021/05/22 00:06:22;;;;;;;1.53;1.43;;;12.80;99.90;;;;;;5114969;28;20308;-61
2021/05/22 00:08:49;;;;;;;1.80;1.60;;;12.80;99.90;;;;;;5114639;28;20662;-61
2021/05/22 00:11:17;;;;;;;1.57;1.43;;;12.80;99.90;;;;;;5114918;28;20199;-62
2021/05/22 00:13:45;;;;;;;2.00;1.60;;;12.80;99.90;;;;;;5114275;28;20226;-60
2021/05/22 00:16:12;;;;;;;1.60;1.50;;;12.70;99.90;;;;;;5114697;28;20200;-61
2021/05/22 00:18:39;;;;;;;4.03;1.40;;;12.80;99.90;;;;;;5114719;28;20223;-62
2021/05/22 00:21:07;;;;;;;2.77;1.40;;;12.80;99.90;;;;;;5114741;28;20199;-60
2021/05/22 00:23:34;;;;;;;3.50;1.70;;;12.80;99.90;;;;;;5114546;28;20198;-62
2021/05/22 00:26:01;;;;;;;3.03;1.70;;;12.80;99.90;;;;;;5114544;28;20223;-61
2021/05/22 00:28:29;;;;;;;2.87;1.63;;;12.90;99.90;;;;;;5114489;28;20196;-60
2021/05/22 00:30:57;;;;;;;2.70;1.63;;;12.90;99.90;;;;;;5113924;28;20290;-61
2021/05/22 00:33:24;;;;;;;2.03;1.70;;;12.90;99.90;;;;;;5114390;28;20221;-60
2021/05/22 00:35:51;;;;;;;1.80;1.60;;;12.90;99.90;;;;;;5114337;28;20199;-61
2021/05/22 00:38:19;;;;;;;2.83;1.40;;;12.90;99.90;;;;;;5114025;27;20199;-61
2021/05/22 00:40:46;;;;;;;2.20;1.43;;;12.90;99.90;;;;;;5114271;27;20210;-60
2021/05/22 00:43:13;;;;;;;5.50;1.70;;;13.00;99.90;;;;;;5113989;28;20680;-60
2021/05/22 00:45:43;;;;;;;2.03;1.67;;;12.80;99.90;;;;;;5113665;28;20722;-61
2021/05/22 00:48:11;;;;;;;3.43;1.50;;;12.80;99.90;;;;;;5114310;28;20203;-60
2021/05/22 00:50:44;;;;;;;2.83;1.50;;;12.80;99.90;;;;;;5113711;28;20237;-61
2021/05/22 00:53:11;;;;;;;2.00;1.63;;;12.80;99.90;;;;;;5114029;28;20204;-61
2021/05/22 00:55:39;;;;;;;1.43;1.30;;;12.90;99.90;;;;;;5114045;28;20199;-61
2021/05/22 00:58:07;;;;;;;3.20;1.70;;;12.80;99.90;;;;;;5113957;28;20278;-62
2021/05/22 01:00:39;;;;;;;2.30;1.40;;;12.70;99.90;;;;;;5112926;28;20203;-60
2021/05/22 01:03:08;;;;;;;1.73;1.10;;;12.70;99.90;;;;;;5113670;28;20183;-62
2021/05/22 01:05:36;;;;;;;1.47;1.30;;;12.70;99.90;;;;;;5113855;28;20290;-61
2021/05/22 01:08:15;;;;;;;1.30;1.20;;;12.60;99.90;;;;;;5113554;28;20203;-61
2021/05/22 01:10:43;;;;;;;2.57;1.43;;;12.50;99.90;;;;;;5113853;28;20188;-62
2021/05/22 01:13:13;;;;;;;1.93;1.30;;;12.50;99.90;;;;;;5113280;28;20249;-61
2021/05/22 01:15:44;;;;;;;2.00;1.20;;;12.40;99.90;;;;;;5113360;28;20295;-62
2021/05/22 01:18:12;;;;;;;2.23;1.20;;;12.30;99.90;;;;;;5113750;28;20560;-62
2021/05/22 01:20:42;;;;;;;2.30;1.33;;;12.20;99.90;;;;;;5113009;28;20248;-61
2021/05/22 01:23:20;;;;;;;3.03;1.20;;;12.10;99.90;;;;;;5113131;28;20217;-61
2021/05/22 01:25:50;;;;;;;2.00;1.43;;;12.20;99.90;;;;;;5112972;28;20539;-61
2021/05/22 01:28:18;;;;;;;1.97;1.37;;;12.10;99.90;;;;;;5113145;28;20205;-61
2021/05/22 01:30:47;;;;;;;2.23;1.57;;;12.00;99.90;;;;;;5093764;28;20738;-61
2021/05/22 01:33:15;;;;;;;3.70;1.33;;;12.00;99.90;;;;;;5092245;28;20219;-62
2021/05/22 01:35:42;;;;;;;1.83;1.37;;;11.90;99.90;;;;;;5092322;28;20250;-61
2021/05/22 01:38:10;;;;;;;3.07;1.30;;;12.00;99.90;;;;;;5092638;28;20204;-61
2021/05/22 01:40:39;;;;;;;2.27;1.50;;;12.00;99.90;;;;;;5092521;28;20206;-61
2021/05/22 01:43:08;;;;;;;3.37;1.60;;;12.00;99.90;;;;;;5092399;28;20655;-59
2021/05/22 01:45:40;;;;;;;2.80;1.40;;;12.10;99.90;;;;;;5091996;28;20200;-59
2021/05/22 01:48:11;;;;;;;2.73;1.40;;;12.10;99.90;;;;;;5092310;28;20220;-58
2021/05/22 01:50:43;;;;;;;1.80;1.53;;;12.10;99.90;;;;;;5092020;28;20687;-59
2021/05/22 01:53:13;;;;;;;1.93;1.20;;;12.00;99.90;;;;;;5092522;28;20287;-59
2021/05/22 01:55:41;;;;;;;1.83;1.30;;;11.90;99.90;;;;;;5092106;28;20283;-59
2021/05/22 01:58:11;;;;;;;3.67;1.60;;;11.80;99.90;;;;;;5092408;28;20196;-58
2021/05/22 02:00:39;;;;;;;3.63;1.87;;;11.90;99.90;;;;;;5091846;28;20695;-58
2021/05/22 02:03:10;;;;;;;2.03;1.50;;;12.10;99.90;;;;;;5092410;28;20192;-59
2021/05/22 02:05:39;;;;;;;3.50;1.33;;;12.10;99.90;;;;;;5092266;28;20616;-60
2021/05/22 02:08:11;;;;;;;3.20;1.77;;;12.10;99.90;;;;;;5092032;28;20204;-59
2021/05/22 02:10:40;;;;;;;1.43;1.33;;;12.20;99.90;;;;;;5092209;28;20222;-60
2021/05/22 02:13:08;;;;;;;1.50;1.40;;;12.20;99.90;;;;;;5094554;28;20314;-60
2021/05/22 02:15:40;;;;;;;1.97;1.20;;;12.30;99.90;;;;;;5095807;28;20758;-61
2021/05/22 02:18:11;;;;;;;2.40;1.37;;;12.30;99.90;;;;;;5096293;28;20216;-59
2021/05/22 02:20:39;;;;;;;1.30;1.20;;;12.40;99.90;;;;;;5096046;28;20185;-59
2021/05/22 02:23:08;;;;;;;1.43;1.00;;;12.40;99.90;;;;;;5096284;28;20199;-59
2021/05/22 02:25:36;;;;;;;1.30;1.20;;;12.40;99.90;;;;;;5096256;28;20240;-59
2021/05/22 02:28:06;;;;;;;2.90;1.50;;;12.30;99.90;;;;;;5095974;28;20854;-61
2021/05/22 02:30:35;;;;;;;1.87;1.10;;;12.20;99.90;;;;;;5095913;28;20283;-59
2021/05/22 02:33:04;;;;;;;2.20;1.50;;;12.10;99.90;;;;;;5096042;28;20223;-59
2021/05/22 02:35:33;;;;;;;1.27;1.10;;;12.10;99.90;;;;;;5096041;28;20202;-59
2021/05/22 02:38:03;;;;;;;1.83;1.20;;;12.10;99.90;;;;;;5096011;28;20300;-58
2021/05/22 02:40:31;;;;;;;2.33;1.30;;;11.90;99.90;;;;;;5095966;28;20184;-61
2021/05/22 02:43:03;;;;;;;2.40;1.23;;;11.80;99.90;;;;;;5095625;28;20206;-61
2021/05/22 02:45:33;;;;;;;5.07;1.40;;;11.90;99.90;;;;;;5095511;28;20185;-61
2021/05/22 02:48:04;;;;;;;1.63;1.40;;;11.80;99.90;;;;;;5095787;28;20279;-61
2021/05/22 02:50:33;;;;;;;1.20;1.03;;;11.90;99.90;;;;;;5095303;28;20238;-61
2021/05/22 02:53:01;;;;;;;2.37;1.10;;;12.00;99.90;;;;;;5095758;28;20753;-61
2021/05/22 02:55:29;;;;;;;2.70;1.10;;;12.00;99.90;;;;;;5095786;28;20196;-61
2021/05/22 02:57:57;;;;;;;3.10;1.20;;;12.00;99.90;;;;;;5095647;28;20306;-61
2021/05/22 03:00:25;;;;;;;1.20;1.00;;;12.00;99.90;;;;;;5095291;28;20199;-61
2021/05/22 03:02:53;;;;;;;1.43;1.20;;;12.00;99.90;;;;;;5095414;28;20200;-61
2021/05/22 03:05:21;;;;;;;2.07;1.30;;;12.00;99.90;;;;;;5095406;28;20200;-61
2021/05/22 03:07:49;;;;;;;2.17;1.07;;;12.00;99.90;;;;;;5095414;28;20245;-61
2021/05/22 03:10:17;;;;;;;1.97;1.10;;;12.00;99.90;;;;;;5095281;28;20196;-62
2021/05/22 03:12:44;;;;;;;1.53;1.27;;;12.00;99.90;;;;;;5095107;28;20242;-62
2021/05/22 03:15:12;;;;;;;1.53;1.13;;;12.00;99.90;;;;;;5094997;28;20199;-59
2021/05/22 03:17:39;;;;;;;1.30;1.20;;;11.90;99.90;;;;;;5095039;28;20214;-59
2021/05/22 03:20:09;;;;;;;1.73;0.97;;;11.80;99.90;;;;;;5095164;28;20200;-60
2021/05/22 03:22:37;;;;;;;1.47;0.93;;;11.80;99.90;;;;;;5094725;28;20235;-59
2021/05/22 03:25:05;;;;;;;2.23;1.20;;;11.90;99.90;;;;;;5094885;28;20211;-58
2021/05/22 03:27:33;;;;;;;1.57;1.00;;;12.10;99.90;;;;;;5095044;28;20228;-60
2021/05/22 03:30:01;;;;;;;1.27;0.93;;;12.20;99.90;;;;;;5094659;28;20285;-59
2021/05/22 03:32:28;;;;;;;2.40;1.00;;;12.10;99.90;;;;;;5094598;28;20204;-58
2021/05/22 03:34:56;;;;;;;0.90;0.90;;;12.30;99.90;;;;;;5094395;28;20224;-59
2021/05/22 03:37:23;;;;;;;4.80;1.33;;;12.30;99.90;;;;;;5094761;28;20295;-59
2021/05/22 03:39:51;;;;;;;2.13;1.17;;;12.40;99.90;;;;;;5094706;28;20200;-59
2021/05/22 03:42:19;;;;;;;1.87;0.97;;;12.40;99.90;;;;;;5094780;28;20235;-58
2021/05/22 03:44:46;;;;;;;3.03;0.90;;;12.50;99.90;;;;;;5094336;28;20643;-59
2021/05/22 03:47:13;;;;;;;1.53;1.00;;;12.50;99.90;;;;;;5094776;28;20211;-59
2021/05/22 03:49:41;;;;;;;1.17;0.87;;;12.50;99.90;;;;;;5094659;28;20200;-58
2021/05/22 03:52:08;;;;;;;1.10;1.00;;;12.60;99.90;;;;;;5094192;28;20267;-59
2021/05/22 03:54:36;;;;;;;2.57;0.90;;;12.50;99.90;;;;;;5094521;28;20224;-58
2021/05/22 03:57:05;;;;;;;2.37;0.90;;;12.60;99.90;;;;;;5094495;28;20219;-59
2021/05/22 03:59:32;;;;;;;1.00;0.77;;;12.60;99.90;;;;;;5093832;28;20585;-59
2021/05/22 04:01:59;;;;;;;0.80;0.77;;;12.70;99.90;;;;;;5094377;28;20283;-59
2021/05/22 04:04:27;;;;;;;2.50;0.80;;;12.70;99.90;;;;;;5094094;28;20196;-58
2021/05/22 04:06:54;;;;;;;2.23;0.87;;;12.70;99.90;;;;;;5094167;28;20283;-58
2021/05/22 04:09:21;;;;;;;3.73;0.90;;;12.70;99.90;;;;;;5094171;28;20295;-58
2021/05/22 04:11:49;;;;;;;1.77;0.83;;;12.70;99.90;;;;;;5094205;28;20196;-59
2021/05/22 04:14:17;;;;;;;1.00;0.90;;;12.70;99.90;;;;;;5093589;28;20234;-59
2021/05/22 04:16:44;;;;;;;1.00;0.63;;;12.70;99.90;;;;;;5093727;28;20671;-59
2021/05/22 04:19:12;;;;;;;2.10;0.70;;;12.70;99.90;;;;;;5093740;28;20204;-59
2021/05/22 04:21:39;;;;;;;2.13;0.80;;;12.70;99.90;;;;;;5094103;28;20196;-59
2021/05/22 04:24:08;;;;;;;2.63;0.70;;;12.70;99.90;;;;;;5093974;28;20245;-59
2021/05/22 04:26:35;;;;;;;2.87;0.70;;;12.60;99.90;;;;;;5093897;28;20200;-59
2021/05/22 04:29:04;;;;;;;1.07;0.67;;;12.50;99.90;;;;;;5093684;28;20202;-60
2021/05/22 04:31:32;;;;;;;1.83;0.60;;;12.40;99.90;;;;;;5093407;28;20561;-58
2021/05/22 04:33:59;;;;;;;1.60;0.63;;;12.40;99.90;;;;;;5093641;28;20220;-59
2021/05/22 04:36:27;;;;;;;2.83;0.77;;;12.40;99.90;;;;;;5092891;28;20208;-60
2021/05/22 04:38:54;;;;;;;1.23;0.60;;;12.30;99.90;;;;;;5093694;28;20225;-60
2021/05/22 04:41:21;;;;;;;1.63;0.60;;;12.30;99.90;;;;;;5093488;28;20204;-59
2021/05/22 04:43:49;;;;;;;0.67;0.57;;;12.20;99.90;;;;;;5093308;28;20291;-60
2021/05/22 04:46:16;;;;;;;2.37;0.80;;;12.10;99.90;;;;;;5092948;28;20649;-59
2021/05/22 04:48:44;;;;;;;2.37;0.70;;;12.00;99.90;;;;;;5093492;28;20306;-59
2021/05/22 04:51:12;;;;;;;0.90;0.60;;;12.00;99.90;;;;;;5092843;28;20331;-60
2021/05/22 04:53:40;;;;;;;1.57;0.87;;;12.00;99.90;;;;;;5093265;28;20231;-59
2021/05/22 04:56:07;;;;;;;1.47;0.70;;;12.10;99.90;;;;;;5093209;28;20286;-60
2021/05/22 04:58:34;;;;;;;0.90;0.60;;;12.00;99.90;;;;;;5093246;28;20240;-59
2021/05/22 05:01:02;;;;;;;2.40;0.77;;;12.00;99.90;;;;;;5092921;28;20234;-59
2021/05/22 05:03:29;;;;;;;1.50;0.80;;;12.10;99.90;;;;;;5093263;28;20203;-61
2021/05/22 05:05:57;;;;;;;2.00;0.77;;;12.20;99.90;;;;;;5093207;28;20204;-59
2021/05/22 05:08:24;;;;;;;1.27;0.70;;;12.10;99.90;;;;;;5093045;28;20294;-60
2021/05/22 05:10:52;;;;;;;1.20;0.60;;;12.10;99.90;;;;;;5093036;28;20257;-59
2021/05/22 05:13:19;;;;;;;2.37;0.50;;;12.20;99.90;;;;;;5093010;28;20354;-61
2021/05/22 05:15:47;;;;;;;2.63;1.03;;;12.20;99.90;;;;;;5092766;28;20192;-59
2021/05/22 05:18:14;;;;;;;2.33;0.80;;;12.30;99.90;;;;;;5092631;28;20292;-59
2021/05/22 05:20:41;;;;;;;2.00;0.80;;;12.30;99.90;;;;;;5092684;28;20330;-59
2021/05/22 05:23:09;;;;;;;2.67;0.73;;;12.30;99.90;;;;;;5092309;28;20207;-60
2021/05/22 05:25:37;;;;;;;1.37;0.80;;;12.30;99.90;;;;;;5092473;28;20196;-59
2021/05/22 05:28:04;;;;;;;1.40;0.60;;;12.30;99.90;;;;;;5092476;28;20208;-59
2021/05/22 05:30:32;;;;;;;2.13;0.90;;;12.30;99.90;;;;;;5092184;28;20210;-59
2021/05/22 05:32:59;;;;;;;2.07;0.70;;;12.40;99.90;;;;;;5092785;28;20283;-59
2021/05/22 05:35:26;;;;;;;2.30;0.77;;;12.40;99.90;;;;;;5092744;28;20315;-59
2021/05/22 05:37:54;;;;;;;2.83;0.83;;;12.40;99.90;;;;;;5092703;28;20200;-58
2021/05/22 05:40:22;;;;;;;1.93;0.70;;;12.40;99.90;;;;;;5092540;28;20196;-59
2021/05/22 05:42:50;;;;;;;1.20;0.80;;;12.50;99.90;;;;;;5092577;28;20204;-59
2021/05/22 05:45:18;;;;;;;1.30;0.70;;;12.60;99.90;;;;;;5092349;28;20230;-59
2021/05/22 05:47:45;;;;;;;0.60;0.60;;;12.70;99.90;;;;;;5092405;28;20291;-59
2021/05/22 05:50:13;;;;;;;1.50;0.77;;;12.90;99.90;;;;;;5092066;28;20789;-60
2021/05/22 05:52:40;;;;;;;3.97;0.70;;;13.00;99.90;;;;;;5092463;28;20184;-61
2021/05/22 05:55:09;;;;;;;2.10;0.83;;;13.10;99.90;;;;;;5092171;28;20310;-59
2021/05/22 05:57:37;;;;;;;1.13;0.63;;;13.30;99.90;;;;;;5092404;28;20279;-61
2021/05/22 06:00:06;;;;;;;2.30;1.00;;;13.50;99.90;;;;;;5092159;28;20398;-62
2021/05/22 06:02:33;;;;;;;1.10;0.60;;;13.70;99.90;;;;;;5092489;28;20288;-59
2021/05/22 06:05:00;;;;;;;1.57;1.00;;;14.00;99.90;;;;;;5092405;28;20227;-59
2021/05/22 06:07:28;;;;;;;2.37;0.80;;;14.30;99.90;;;;;;5092075;28;20664;-59
2021/05/22 06:09:55;;;;;;;2.90;0.80;;;14.60;99.90;;;;;;5092317;28;20199;-59
2021/05/22 06:12:23;;;;;;;2.60;0.70;;;15.00;99.90;;;;;;5092238;28;20235;-60
2021/05/22 06:14:55;;;;;;;1.92;0.73;;;15.10;99.90;;;;;;5091755;28;20220;-60
2021/05/22 06:17:23;;;;;;;2.00;1.03;;;15.20;99.90;;;;;;5092300;28;20188;-58
2021/05/22 06:19:50;;;;;;;4.13;1.53;;;15.10;99.90;;;;;;5091895;28;20250;-59
2021/05/22 06:22:17;;;;;;;1.00;0.70;;;15.10;99.90;;;;;;5092138;28;20206;-61
2021/05/22 06:24:46;;;;;;;1.23;0.60;;;15.10;99.90;;;;;;5092133;28;20291;-59
2021/05/22 06:27:14;;;;;;;1.20;0.70;;;15.00;99.90;;;;;;5091904;28;20594;-59
2021/05/22 06:29:41;;;;;;;2.90;0.60;;;15.00;99.90;;;;;;5091121;28;20291;-59
2021/05/22 06:32:09;;;;;;;3.20;1.10;;;14.80;99.90;;;;;;5091736;28;20227;-60
2021/05/22 06:34:36;;;;;;;2.10;0.80;;;14.80;99.90;;;;;;5091989;28;20223;-59
2021/05/22 06:37:04;;;;;;;1.80;0.70;;;14.70;99.90;;;;;;5091490;28;20640;-59
2021/05/22 06:39:31;;;;;;;3.13;0.70;;;14.60;99.90;;;;;;5090190;28;20647;-59
2021/05/22 06:41:58;;;;;;;3.70;0.77;;;14.60;99.90;;;;;;5092009;28;20206;-59
2021/05/22 06:44:30;;;;;;;2.15;1.02;;;14.60;99.90;;;;;;5091632;28;20199;-59
2021/05/22 06:46:58;;;;;;;0.80;0.70;;;14.80;99.90;;;;;;5092007;28;20275;-59
2021/05/22 06:49:31;;;;;;;2.50;0.80;;;14.80;99.90;;;;;;5091619;28;20828;-59
2021/05/22 06:51:59;;;;;;;2.23;0.90;;;14.80;99.90;;;;;;5091574;28;20319;-59
2021/05/22 06:54:27;;;;;;;2.50;0.73;;;14.90;99.90;;;;;;5091503;28;20639;-59
2021/05/22 06:56:54;;;;;;;2.87;0.90;;;15.00;99.90;;;;;;5091573;28;20614;-58
2021/05/22 06:59:21;;;;;;;1.47;0.80;;;14.90;99.90;;;;;;5093793;28;20260;-59
2021/05/22 07:01:49;;;;;;;4.20;0.90;;;14.80;99.90;;;;;;5095517;28;20196;-60
2021/05/22 07:04:16;;;;;;;3.73;1.23;;;14.60;99.90;;;;;;5095535;28;20204;-59
2021/05/22 07:06:44;;;;;;;2.43;0.90;;;14.70;99.90;;;;;;5095683;28;20307;-59
2021/05/22 07:09:14;;;;;;;1.70;0.70;;;14.90;99.90;;;;;;5086369;28;20184;-59
2021/05/22 07:11:42;;;;;;;1.73;0.70;;;15.00;99.90;;;;;;5087865;28;20200;-59
2021/05/22 07:14:09;;;;;;;3.43;1.20;;;15.00;99.90;;;;;;5095485;28;20213;-60
2021/05/22 07:16:55;;;;;;;3.13;0.90;;;15.10;99.90;;;;;;5095274;28;20206;-60
2021/05/22 07:19:23;;;;;;;2.47;0.70;;;15.10;99.90;;;;;;5095310;28;20200;-59
2021/05/22 07:21:51;;;;;;;2.33;0.97;;;15.20;99.90;;;;;;5095199;28;20199;-59
2021/05/22 07:24:19;;;;;;;3.13;0.80;;;15.30;99.90;;;;;;5094982;28;20530;-60
2021/05/22 07:26:47;;;;;;;1.33;0.63;;;15.20;99.90;;;;;;5095423;28;20199;-59
2021/05/22 07:29:15;;;;;;;1.80;0.80;;;15.40;99.90;;;;;;5095006;28;20242;-59
2021/05/22 07:31:43;;;;;;;2.70;1.00;;;15.30;99.90;;;;;;5095007;28;20206;-59
2021/05/22 07:34:11;;;;;;;2.90;0.80;;;15.30;99.90;;;;;;5095120;28;20227;-60
2021/05/22 07:36:40;;;;;;;2.17;0.70;;;15.20;99.90;;;;;;5094984;28;20204;-59
2021/05/22 07:39:12;;;;;;;1.53;0.60;;;15.40;99.90;;;;;;5094931;28;20227;-59
2021/05/22 07:41:44;;;;;;;3.80;0.75;;;15.70;99.90;;;;;;5094813;28;20651;-60
2021/05/22 07:44:12;;;;;;;2.60;0.70;;;16.10;99.90;;;;;;5094914;28;20200;-60
2021/05/22 07:46:39;;;;;;;2.40;0.93;;;16.20;99.90;;;;;;5094678;28;20222;-59
2021/05/22 07:49:06;;;;;;;0.57;0.50;;;16.10;99.90;;;;;;5095044;28;20200;-59
2021/05/22 07:51:34;;;;;;;1.27;0.70;;;15.90;99.90;;;;;;5094511;28;20232;-59
2021/05/22 07:54:01;;;;;;;1.17;0.70;;;15.70;99.90;;;;;;5094719;28;20349;-59
2021/05/22 07:56:30;;;;;;;1.17;0.60;;;15.60;99.90;;;;;;5094345;28;20220;-59
2021/05/22 07:58:58;;;;;;;0.90;0.40;;;15.60;99.90;;;;;;5094643;28;20546;-59
2021/05/22 08:01:25;;;;;;;2.73;0.80;;;15.70;99.90;;;;;;5093843;28;20199;-59
2021/05/22 08:03:52;;;;;;;2.03;0.70;;;15.80;99.90;;;;;;5094261;28;20275;-59
2021/05/22 08:06:20;;;;;;;2.30;0.70;;;15.90;99.90;;;;;;5094145;28;20190;-59
2021/05/22 08:08:47;;;;;;;0.95;0.65;;;16.10;99.90;;;;;;5090451;28;20279;-59
2021/05/22 08:11:15;;;;;;;1.17;0.70;;;16.30;99.90;;;;;;5084102;28;20249;-59
2021/05/22 08:13:43;;;;;;;2.35;0.70;;;16.20;99.90;;;;;;5092883;28;20196;-59
2021/05/22 08:16:11;;;;;;;0.82;0.57;;;16.20;99.90;;;;;;5093529;28;20226;-58
2021/05/22 08:18:39;;;;;;;1.53;0.70;;;16.10;99.90;;;;;;5094185;28;20204;-60
2021/05/22 08:21:07;;;;;;;3.63;0.97;;;15.80;99.90;;;;;;5092156;28;20308;-59
2021/05/22 08:23:34;;;;;;;1.97;0.83;;;15.50;99.90;;;;;;5093829;28;20220;-59
2021/05/22 08:26:01;;;;;;;2.03;0.70;;;15.40;99.90;;;;;;5093796;28;20210;-60
2021/05/22 08:28:50;;;;;;;1.90;0.70;;;15.50;99.90;;;;;;5093448;28;20587;-59
2021/05/22 08:31:17;;;;;;;3.80;0.80;;;15.50;99.90;;;;;;5092642;28;20207;-59
2021/05/22 08:33:45;;;;;;;2.90;0.80;;;15.60;99.90;;;;;;5093548;28;20656;-60
2021/05/22 08:36:13;;;;;;;2.80;0.80;;;15.70;99.90;;;;;;5092532;28;20335;-60
2021/05/22 08:38:41;;;;;;;2.00;0.90;;;15.70;99.90;;;;;;5093489;28;20196;-59
2021/05/22 08:41:09;;;;;;;2.53;0.73;;;15.80;99.90;;;;;;5093255;28;20200;-59
2021/05/22 08:43:37;;;;;;;2.15;0.82;;;15.90;99.90;;;;;;5093712;28;20296;-60
2021/05/22 08:46:08;;;;;;;2.57;0.83;;;16.00;99.90;;;;;;5093205;28;20219;-60
2021/05/22 08:48:36;;;;;;;1.70;0.77;;;16.00;99.90;;;;;;5093786;28;20195;-60
2021/05/22 08:51:06;;;;;;;0.73;0.63;;;15.90;99.90;;;;;;5093302;28;20254;-60
2021/05/22 08:53:33;;;;;;;1.58;0.63;;;15.80;99.90;;;;;;5093161;28;20283;-60
2021/05/22 08:56:02;;;;;;;2.05;0.90;;;15.90;99.90;;;;;;5093398;28;20226;-60
2021/05/22 08:58:29;;;;;;;2.17;0.80;;;15.90;99.90;;;;;;5093250;28;20644;-60
2021/05/22 09:00:57;;;;;;;2.00;0.70;;;15.90;99.90;;;;;;5093183;28;20202;-60
2021/05/22 09:03:25;;;;;;;1.27;0.70;;;15.70;99.90;;;;;;5093383;28;20262;-61
2021/05/22 09:05:53;;;;;;;1.87;0.83;;;15.60;99.90;;;;;;5093014;28;20849;-60
2021/05/22 09:08:20;;;;;;;2.05;0.80;;;15.60;99.90;;;;;;5093343;28;20234;-59
2021/05/22 09:10:49;;;;;;;3.93;0.90;;;15.50;99.90;;;;;;5092582;28;20292;-59
2021/05/22 09:13:21;;;;;;;2.42;0.90;;;15.40;99.90;;;;;;5093283;28;20284;-59
2021/05/22 09:15:54;;;;;;;3.55;1.00;;;15.30;99.90;;;;;;5091977;28;20646;-59
2021/05/22 09:18:24;;;;;;;2.43;1.00;;;15.40;99.90;;;;;;5092820;28;20636;-59
2021/05/22 09:20:55;;;;;;;1.85;1.00;;;15.60;99.90;;;;;;5092353;28;20210;-60
2021/05/22 09:23:24;;;;;;;1.60;0.80;;;15.80;99.90;;;;;;5093167;28;20271;-59
2021/05/22 09:25:53;;;;;;;1.25;0.60;;;16.30;99.90;;;;;;5092809;28;20200;-59
2021/05/22 09:28:23;;;;;;;4.18;0.80;;;16.50;99.90;;;;;;5093136;28;20230;-60
2021/05/22 09:30:52;;;;;;;2.13;1.02;;;16.50;99.90;;;;;;5092776;28;20235;-59
2021/05/22 09:33:21;;;;;;;4.72;1.10;;;16.60;99.90;;;;;;5092786;28;20739;-59
2021/05/22 09:35:55;;;;;;;1.58;1.00;;;16.80;99.90;;;;;;5092412;28;20619;-59
2021/05/22 09:38:33;;;;;;;2.08;1.00;;;16.90;99.90;;;;;;5092958;28;20263;-59
2021/05/22 09:41:13;;;;;;;4.25;1.17;;;16.60;99.90;;;;;;5092972;28;20265;-60
2021/05/22 09:43:40;;;;;;;2.30;0.80;;;16.20;99.90;;;;;;5092745;28;20184;-60
2021/05/22 09:46:09;;;;;;;2.77;1.07;;;16.10;99.90;;;;;;5092213;28;20283;-59
2021/05/22 09:48:37;;;;;;;3.25;0.95;;;16.30;99.90;;;;;;5092675;28;20234;-58
2021/05/22 09:51:07;;;;;;;2.35;0.95;;;16.20;99.90;;;;;;5092049;28;20267;-59
2021/05/22 09:53:36;;;;;;;1.07;0.90;;;16.20;99.90;;;;;;5092701;28;20203;-60
2021/05/22 09:56:12;;;;;;;2.53;0.88;;;16.10;99.90;;;;;;5092542;28;20235;-60
2021/05/22 09:58:41;;;;;;;3.10;1.07;;;16.00;99.90;;;;;;5092305;28;20263;-59
2021/05/22 10:01:10;;;;;;;1.08;0.70;;;16.10;99.90;;;;;;5092347;28;20200;-59
2021/05/22 10:03:38;;;;;;;2.80;0.95;;;16.50;99.90;;;;;;5092382;28;20198;-59
2021/05/22 10:06:07;;;;;;;1.70;0.95;;;16.80;99.90;;;;;;5073374;28;20633;-60
2021/05/22 10:08:34;;;;;;;1.75;0.80;;;17.00;99.90;;;;;;5072483;28;20239;-61
2021/05/22 10:11:02;;;;;;;1.38;0.70;;;16.80;99.90;;;;;;5072229;28;20240;-60
2021/05/22 10:13:29;;;;;;;2.38;1.10;;;16.80;99.90;;;;;;5072008;28;20858;-60
2021/05/22 10:15:58;;;;;;;2.95;1.10;;;16.90;99.90;;;;;;5071892;28;20289;-60
2021/05/22 10:18:27;;;;;;;2.38;0.98;;;16.90;99.90;;;;;;5072401;28;20291;-60
2021/05/22 10:20:56;;;;;;;2.88;0.90;;;17.10;99.90;;;;;;5071980;28;20291;-60
2021/05/22 10:23:25;;;;;;;1.30;0.70;;;17.10;99.90;;;;;;5072144;28;20236;-60
2021/05/22 10:25:54;;;;;;;1.48;0.93;;;17.30;99.90;;;;;;5081621;28;20197;-60
2021/05/22 10:28:22;;;;;;;1.63;0.82;;;17.50;99.90;;;;;;5075506;28;20201;-60
2021/05/22 10:30:50;;;;;;;2.15;0.70;;;17.30;99.90;;;;;;5071813;28;20209;-60
2021/05/22 10:33:18;;;;;;;1.50;0.70;;;17.30;99.90;;;;;;5072773;28;20227;-60
2021/05/22 10:35:48;;;;;;;3.65;1.02;;;17.10;99.90;;;;;;5075646;28;20224;-59
2021/05/22 10:38:40;;;;;;;1.02;0.73;;;17.00;99.90;;;;;;5075849;28;20205;-59
2021/05/22 10:41:11;;;;;;;1.40;0.70;;;16.80;99.90;;;;;;5075756;28;20205;-59
2021/05/22 10:43:41;;;;;;;1.97;0.80;;;16.60;99.90;;;;;;5075556;28;20189;-60
2021/05/22 10:46:08;;;;;;;1.93;0.93;;;16.40;99.90;;;;;;5093061;28;20309;-60
2021/05/22 10:48:57;;;;;;;2.10;0.98;;;16.20;99.90;;;;;;5095726;28;20542;-60
2021/05/22 10:51:34;;;;;;;1.95;1.00;;;16.00;99.90;;;;;;5095524;28;20278;-59
2021/05/22 10:54:05;;;;;;;1.23;0.73;;;16.20;99.90;;;;;;5095861;28;20222;-60
2021/05/22 10:56:33;;;;;;;3.10;1.10;;;16.60;99.90;;;;;;5095665;28;20588;-59
2021/05/22 10:59:15;;;;;;;1.50;0.80;;;16.80;99.90;;;;;;5095366;28;20208;-60
2021/05/22 11:01:47;;;;;;;1.88;0.80;;;17.00;99.90;;;;;;5095277;28;20203;-59
2021/05/22 11:04:36;;;;;;;3.20;0.88;;;17.10;99.90;;;;;;5095834;28;20246;-59
2021/05/22 11:07:23;;;;;;;2.17;0.80;;;17.00;99.90;;;;;;5095724;28;20181;-60
2021/05/22 11:09:52;;;;;;;2.08;0.90;;;16.70;99.90;;;;;;5095308;28;20191;-59
2021/05/22 11:12:45;;;;;;;2.25;0.80;;;16.40;99.90;;;;;;5095368;28;20239;-61
2021/05/22 11:15:48;;;;;;;1.50;0.73;;;16.20;99.90;;;;;;5087975;28;20200;-61
2021/05/22 11:18:17;;;;;;;1.70;0.70;;;16.40;99.90;;;;;;5095411;28;20188;-60
2021/05/22 11:21:27;;;;;;;2.63;0.90;;;16.60;99.90;;;;;;5095397;28;20266;-60
2021/05/22 11:24:18;;;;;;;3.33;1.05;;;16.70;99.90;;;;;;5095174;28;20200;-60
2021/05/22 11:27:02;;;;;;;1.40;0.80;;;16.80;99.90;;;;;;5095179;28;20227;-61
2021/05/22 11:29:54;;;;;;;1.85;0.77;;;17.00;99.90;;;;;;5094359;28;20184;-61
2021/05/22 11:32:44;;;;;;;1.25;0.70;;;17.00;99.90;;;;;;5095259;28;20187;-61
2021/05/22 11:35:40;;;;;;;2.80;1.00;;;17.10;99.90;;;;;;5094887;28;20597;-64
2021/05/22 11:38:26;;;;;;;2.53;0.65;;;17.40;99.90;;;;;;5059242;28;20245;-64
2021/05/22 11:41:00;;;;;;;1.67;0.63;;;17.60;99.90;;;;;;5095054;28;20184;-63
2021/05/22 11:43:30;;;;;;;2.20;0.98;;;17.40;99.90;;;;;;5094955;28;20204;-63
2021/05/22 11:46:00;;;;;;;3.78;0.82;;;17.00;99.90;;;;;;5094253;28;20220;-63
2021/05/22 11:48:29;;;;;;;3.30;0.75;;;16.80;99.90;;;;;;5094331;28;20234;-64
2021/05/22 11:51:23;;;;;;;1.30;0.60;;;16.60;99.90;;;;;;5094108;28;20315;-62
2021/05/22 11:53:57;;;;;;;1.00;0.63;;;16.80;99.90;;;;;;5084463;28;20275;-62
2021/05/22 11:56:25;;;;;;;4.13;0.90;;;16.90;99.90;;;;;;5094530;28;20593;-64
2021/05/22 11:58:55;;;;;;;0.70;0.60;;;17.40;99.90;;;;;;5094388;28;20282;-63
2021/05/22 12:01:26;;;;;;;4.43;1.00;;;17.70;99.90;;;;;;5094062;28;20774;-64
2021/05/22 12:03:58;;;;;;;2.40;0.70;;;17.80;99.90;;;;;;5094402;28;20192;-63
2021/05/22 12:06:31;;;;;;;2.47;0.85;;;17.60;99.90;;;;;;5094308;28;20208;-64
2021/05/22 12:09:07;;;;;;;2.17;1.00;;;17.30;99.90;;;;;;5094454;28;20279;-65
2021/05/22 12:11:37;;;;;;;2.03;0.73;;;17.20;99.90;;;;;;5094469;28;20187;-65
2021/05/22 12:14:06;;;;;;;1.95;0.85;;;17.30;99.90;;;;;;5093935;28;20294;-63
2021/05/22 12:16:35;;;;;;;2.65;0.80;;;17.60;99.90;;;;;;5092699;28;20222;-62
2021/05/22 12:19:14;;;;;;;1.58;0.70;;;17.70;99.90;;;;;;5093840;28;20746;-62
2021/05/22 12:21:48;;;;;;;1.27;0.70;;;17.70;99.90;;;;;;5093984;28;20271;-63
2021/05/22 12:24:17;;;;;;;2.85;0.70;;;17.50;99.90;;;;;;5093818;28;20265;-59
2021/05/22 12:26:49;;;;;;;2.55;0.80;;;17.50;99.90;;;;;;5093771;28;20208;-61
2021/05/22 12:29:18;;;;;;;1.83;0.60;;;17.70;99.90;;;;;;5093695;28;20204;-63
2021/05/22 12:31:55;;;;;;;2.60;0.85;;;17.90;99.90;;;;;;5093339;28;20224;-61
2021/05/22 12:34:28;;;;;;;1.52;0.80;;;18.10;99.90;;;;;;5093692;28;20533;-61
2021/05/22 12:36:58;;;;;;;1.30;0.50;;;18.10;99.90;;;;;;5093631;28;20226;-60
2021/05/22 12:39:31;;;;;;;1.83;0.70;;;18.00;99.90;;;;;;5093731;28;20199;-60
2021/05/22 12:41:59;;;;;;;2.58;0.60;;;17.90;99.90;;;;;;5093490;28;20184;-60
2021/05/22 12:44:27;;;;;;;1.35;0.77;;;18.00;99.90;;;;;;5093557;28;20202;-60
2021/05/22 12:46:57;;;;;;;3.90;0.68;;;17.90;99.90;;;;;;5093349;28;20199;-60
2021/05/22 12:49:33;;;;;;;1.23;0.60;;;17.80;99.90;;;;;;5079383;28;20181;-60
2021/05/22 12:52:04;;;;;;;1.85;0.60;;;17.70;99.90;;;;;;5092949;28;20262;-59
2021/05/22 12:54:41;;;;;;;1.23;0.55;;;17.80;99.90;;;;;;5093208;28;20234;-60
2021/05/22 12:57:11;;;;;;;1.15;0.57;;;17.80;99.90;;;;;;5092409;28;20227;-62
2021/05/22 12:59:41;;;;;;;1.90;0.75;;;17.90;99.90;;;;;;5093089;28;20192;-62
2021/05/22 13:02:20;;;;;;;1.48;0.63;;;18.00;99.90;;;;;;5092987;28;20758;-61